Cato Island, Australia
Current Conditions -  °F | °C
As of 9:00 AM on Saturday 01 Nov 2014 (Local Time) from YBUD Reporting Station
Broken Clouds Broken Clouds  
Wind Chill: 82°   Ceiling: 3900
Heat Index: 85°   Visibility: 6mi
Dew Point: 66°   Wind: 14mph
Humidity: 58%   Direction: 10°N
Pressure: 30"   Gusts: NA
Location:  23.25°S, 155.53°E
Report Text: YBUD 312300Z AUTO 01012KT 9999 // SCT023 SCT028 BKN039 28/19 Q1016
Loading
Personal Weather Stations






























Interactive Weather Map New forecast layout! Learn more

10-Day Weather Forecast

Advertisements
Track Severe Weather on mobile